createdAt,value
2019-05-14T00:00:06.617Z,103354.13
2019-05-14T00:02:34.398Z,103355.97
2019-05-14T00:05:02.181Z,103354.86
2019-05-14T00:07:31.972Z,103356.42
2019-05-14T00:10:01.234Z,103347.94
2019-05-14T00:12:28.736Z,103360.73
2019-05-14T00:14:56.478Z,103354.84
2019-05-14T00:17:24.252Z,103358.48
2019-05-14T00:20:05.965Z,103358.63
2019-05-14T00:22:21.806Z,103366.14
2019-05-14T00:24:51.904Z,103369.65
2019-05-14T00:27:21.677Z,103367.64
2019-05-14T00:29:48.734Z,103360.36
2019-05-14T00:32:16.522Z,103364.77
2019-05-14T00:34:44.267Z,103368.63
2019-05-14T00:37:11.992Z,103369.83
2019-05-14T00:39:41.596Z,103367.30
2019-05-14T00:42:09.182Z,103377.14
2019-05-14T00:44:49.940Z,103369.33
2019-05-14T00:47:06.921Z,103370.78
2019-05-14T00:49:34.647Z,103364.25
2019-05-14T00:52:02.474Z,103369.17
2019-05-14T00:54:32.248Z,103364.94
2019-05-14T00:57:01.456Z,103360.45
2019-05-14T00:59:29.063Z,103361.61
2019-05-14T01:01:56.838Z,103358.54
2019-05-14T01:04:24.582Z,103367.02
2019-05-14T01:06:52.325Z,103373.23
2019-05-14T01:09:21.777Z,103374.41
2019-05-14T01:11:51.292Z,103366.42
2019-05-14T01:14:21.146Z,103368.27
2019-05-14T01:16:51.431Z,103370.34
2019-05-14T01:19:18.824Z,103377.20
2019-05-14T01:21:46.567Z,103367.20
2019-05-14T01:24:14.364Z,103376.23
2019-05-14T01:26:43.238Z,103374.96
2019-05-14T01:29:12.017Z,103376.77
2019-05-14T01:31:41.771Z,103377.42
2019-05-14T01:34:11.199Z,103377.97
2019-05-14T01:36:38.716Z,103380.15
2019-05-14T01:39:06.488Z,103385.16
2019-05-14T01:41:34.240Z,103381.30
2019-05-14T01:44:01.994Z,103382.72
2019-05-14T01:46:31.652Z,103386.58
2019-05-14T01:49:01.373Z,103384.80
2019-05-14T01:51:28.563Z,103393.80
2019-05-14T01:53:56.373Z,103386.84
2019-05-14T01:56:24.126Z,103384.03
2019-05-14T01:58:52.381Z,103385.57
2019-05-14T02:01:21.934Z,103388.40
2019-05-14T02:03:51.805Z,103379.69
2019-05-14T02:06:21.255Z,103383.67
2019-05-14T02:08:48.741Z,103380.86
2019-05-14T02:11:16.487Z,103380.98
2019-05-14T02:13:44.239Z,103380.73
2019-05-14T02:16:13.047Z,103374.56
2019-05-14T02:18:41.632Z,103373.56
2019-05-14T02:21:11.681Z,103373.83
2019-05-14T02:23:38.982Z,103374.87
2019-05-14T02:26:06.727Z,103384.62
2019-05-14T02:28:34.786Z,103383.59
2019-05-14T02:31:03.825Z,103386.45
2019-05-14T02:33:31.952Z,103381.66
2019-05-14T02:36:00.094Z,103381.56
2019-05-14T02:38:29.938Z,103381.03
2019-05-14T02:40:59.940Z,103379.64
2019-05-14T02:43:29.277Z,103377.82
2019-05-14T02:46:09.551Z,103380.78
2019-05-14T02:48:28.939Z,103372.94
2019-05-14T02:50:55.206Z,103370.66
2019-05-14T02:53:22.989Z,103369.37
2019-05-14T02:55:50.745Z,103371.41
2019-05-14T02:58:20.761Z,103373.48
2019-05-14T03:00:49.206Z,103370.91
2019-05-14T03:03:19.271Z,103370.91
2019-05-14T03:05:49.439Z,103367.45
2019-05-14T03:08:19.461Z,103368.34
2019-05-14T03:10:45.582Z,103374.87
2019-05-14T03:13:13.319Z,103373.98
2019-05-14T03:15:41.090Z,103380.01
2019-05-14T03:18:09.369Z,103381.04
2019-05-14T03:20:39.029Z,103379.65
2019-05-14T03:23:09.851Z,103384.89
2019-05-14T03:25:36.045Z,103385.78
2019-05-14T03:28:03.812Z,103390.67
2019-05-14T03:30:32.875Z,103388.99
2019-05-14T03:33:02.629Z,103391.70
2019-05-14T03:35:41.333Z,103390.81
2019-05-14T03:38:00.397Z,103394.80
2019-05-14T03:40:29.354Z,103390.56
2019-05-14T03:42:59.818Z,103390.16
2019-05-14T03:45:29.649Z,103391.05
2019-05-14T03:47:58.715Z,103389.02
2019-05-14T03:50:29.735Z,103389.52
2019-05-14T03:52:59.106Z,103385.41
2019-05-14T03:55:29.008Z,103384.52
2019-05-14T03:57:59.495Z,103381.41
2019-05-14T04:00:30.719Z,103377.81
2019-05-14T04:03:00.242Z,103382.06
2019-05-14T04:05:29.410Z,103377.78
2019-05-14T04:08:00.116Z,103379.03
2019-05-14T04:10:29.836Z,103386.00
2019-05-14T04:12:59.721Z,103386.72
2019-05-14T04:15:25.689Z,103379.05
2019-05-14T04:17:53.461Z,103379.86
2019-05-14T04:20:21.194Z,103378.16
2019-05-14T04:22:50.184Z,103378.63
2019-05-14T04:25:19.493Z,103384.16
2019-05-14T04:27:49.393Z,103385.02
2019-05-14T04:30:23.123Z,103392.79
2019-05-14T04:32:50.274Z,103394.69
2019-05-14T04:35:20.165Z,103390.05
2019-05-14T04:37:49.680Z,103399.70
2019-05-14T04:40:18.730Z,103398.47
2019-05-14T04:42:45.639Z,103402.13
2019-05-14T04:45:13.432Z,103396.30
2019-05-14T04:47:42.351Z,103405.41
2019-05-14T04:50:10.845Z,103404.03
2019-05-14T04:52:40.290Z,103401.33
2019-05-14T04:55:09.877Z,103335.48
2019-05-14T04:57:39.123Z,103403.42
2019-05-14T05:00:11.668Z,103397.38
2019-05-14T05:02:39.780Z,103408.30
2019-05-14T05:05:09.013Z,103402.47
2019-05-14T05:07:35.683Z,103399.22
2019-05-14T05:10:05.070Z,103395.28
2019-05-14T05:12:32.826Z,103399.98
2019-05-14T05:15:00.606Z,103397.33
2019-05-14T05:17:42.866Z,103394.69
2019-05-14T05:19:59.392Z,103401.28
2019-05-14T05:22:28.631Z,103405.81
2019-05-14T05:24:58.835Z,103405.55
2019-05-14T05:27:25.887Z,103404.92
2019-05-14T05:29:53.679Z,103402.98
2019-05-14T05:32:21.427Z,103403.61
2019-05-14T05:34:50.129Z,103400.38
2019-05-14T05:37:19.019Z,103405.78
2019-05-14T05:39:48.869Z,103404.73
2019-05-14T05:42:18.602Z,103394.09
2019-05-14T05:44:48.158Z,103395.53
2019-05-14T05:47:15.070Z,103399.64
2019-05-14T05:49:42.817Z,103401.52
2019-05-14T05:52:10.599Z,103399.88
2019-05-14T05:54:38.618Z,103405.56
2019-05-14T05:57:09.034Z,103400.81
2019-05-14T05:59:35.905Z,103404.38
2019-05-14T06:02:03.903Z,103410.25
2019-05-14T06:04:31.642Z,103410.05
2019-05-14T06:07:02.514Z,103403.48
2019-05-14T06:09:28.875Z,103407.27
2019-05-14T06:11:59.033Z,103413.81
2019-05-14T06:14:26.027Z,103411.89
2019-05-14T06:16:53.861Z,103412.59
2019-05-14T06:19:21.579Z,103411.54
2019-05-14T06:21:49.438Z,103414.96
2019-05-14T06:24:19.307Z,103419.60
2019-05-14T06:26:48.811Z,103416.88
2019-05-14T06:29:18.495Z,103416.87
2019-05-14T06:31:45.411Z,103427.41
2019-05-14T06:34:13.163Z,103413.91
2019-05-14T06:36:41.967Z,103412.83
2019-05-14T06:39:09.729Z,103410.34
2019-05-14T06:41:42.493Z,103407.83
2019-05-14T06:44:09.031Z,103408.48
2019-05-14T06:46:36.292Z,103412.92
2019-05-14T06:49:04.042Z,103413.37
2019-05-14T06:51:31.839Z,103412.98
2019-05-14T06:53:59.618Z,103407.59
2019-05-14T06:56:28.283Z,103413.84
2019-05-14T06:58:58.318Z,103410.69
2019-05-14T07:01:25.535Z,103411.61
2019-05-14T07:03:53.279Z,103411.98
2019-05-14T07:06:21.075Z,103415.36
2019-05-14T07:08:52.120Z,103418.29
2019-05-14T07:11:19.145Z,103419.45
2019-05-14T07:13:49.157Z,103432.80
2019-05-14T07:16:16.594Z,103426.94
2019-05-14T07:18:49.426Z,103418.59
2019-05-14T07:21:13.765Z,103423.89
2019-05-14T07:23:41.517Z,103424.27
2019-05-14T07:26:09.271Z,103415.68
2019-05-14T07:28:42.203Z,103414.54
2019-05-14T07:31:06.456Z,103409.59
2019-05-14T07:33:34.221Z,103406.00
2019-05-14T07:36:02.015Z,103414.56
2019-05-14T07:38:30.330Z,103401.81
2019-05-14T07:40:58.708Z,103404.62
2019-05-14T07:43:28.721Z,103404.73
2019-05-14T07:45:58.055Z,103405.31
2019-05-14T07:48:25.413Z,103399.83
2019-05-14T07:50:53.216Z,103397.94
2019-05-14T07:53:34.834Z,103398.59
2019-05-14T07:55:50.363Z,103402.41
2019-05-14T07:58:19.694Z,103395.34
2019-05-14T08:00:49.254Z,103396.52
2019-05-14T08:03:19.013Z,103387.00
2019-05-14T08:05:48.251Z,103381.75
2019-05-14T08:08:18.566Z,103394.91
2019-05-14T08:10:45.402Z,103382.31
2019-05-14T08:13:13.196Z,103375.11
2019-05-14T08:15:40.935Z,103372.69
2019-05-14T08:18:08.704Z,103376.03
2019-05-14T08:20:37.985Z,103372.05
2019-05-14T08:23:06.057Z,103375.20
2019-05-14T08:25:33.814Z,103370.11
2019-05-14T08:28:01.598Z,103366.52
2019-05-14T08:30:29.346Z,103365.05
2019-05-14T08:32:58.272Z,103369.04
2019-05-14T08:35:26.178Z,103368.00
2019-05-14T08:38:05.521Z,103373.09
2019-05-14T08:40:23.506Z,103381.61
2019-05-14T08:42:51.313Z,103379.29
2019-05-14T08:45:19.086Z,103368.30
2019-05-14T08:47:48.325Z,103371.80
2019-05-14T08:50:18.561Z,103376.33
2019-05-14T08:52:48.149Z,103384.05
2019-05-14T08:55:15.179Z,103372.34
2019-05-14T08:57:43.076Z,103276.53
2019-05-14T09:00:14.659Z,103384.90
2019-05-14T09:02:41.103Z,103372.78
2019-05-14T09:05:10.280Z,103372.92
2019-05-14T09:07:38.505Z,103363.81
2019-05-14T09:10:08.668Z,103365.00
2019-05-14T09:12:38.880Z,103373.37
2019-05-14T09:15:06.240Z,103372.92
2019-05-14T09:17:33.994Z,103367.20
2019-05-14T09:20:07.003Z,103356.23
2019-05-14T09:22:31.184Z,103355.70
2019-05-14T09:25:00.116Z,103361.66
2019-05-14T09:27:29.218Z,103351.69
2019-05-14T09:29:58.993Z,103338.90
2019-05-14T09:32:28.952Z,103363.53
2019-05-14T09:34:56.041Z,103357.27
2019-05-14T09:37:23.796Z,103345.47
2019-05-14T09:39:51.550Z,103341.05
2019-05-14T09:42:20.527Z,103345.80
2019-05-14T09:44:49.055Z,103365.81
2019-05-14T09:47:18.945Z,103353.30
2019-05-14T09:49:48.881Z,103348.40
2019-05-14T09:52:18.472Z,103341.87
2019-05-14T09:54:45.179Z,103342.95
2019-05-14T09:57:12.969Z,103357.41
2019-05-14T09:59:40.703Z,103342.73
2019-05-14T10:02:09.154Z,103344.52
2019-05-14T10:04:39.124Z,103334.59
2019-05-14T10:07:08.770Z,103346.34
2019-05-14T10:09:38.668Z,103345.05
2019-05-14T10:12:05.626Z,103347.27
2019-05-14T10:14:33.381Z,103338.69
2019-05-14T10:17:01.227Z,103328.47
2019-05-14T10:19:29.779Z,103325.78
2019-05-14T10:21:58.840Z,103330.99
2019-05-14T10:24:28.939Z,103343.61
2019-05-14T10:26:58.467Z,103330.45
2019-05-14T10:29:25.513Z,103341.08
2019-05-14T10:31:53.287Z,103348.44
2019-05-14T10:34:21.101Z,103323.83
2019-05-14T10:36:49.122Z,103322.31
2019-05-14T10:39:19.196Z,103323.28
2019-05-14T10:41:46.304Z,103328.88
2019-05-14T10:44:14.271Z,103317.90
2019-05-14T10:46:42.028Z,103323.06
2019-05-14T10:49:19.966Z,103328.19
2019-05-14T10:51:39.209Z,103326.14
2019-05-14T10:54:21.189Z,103325.25
2019-05-14T10:56:36.418Z,103327.32
2019-05-14T10:59:04.159Z,103314.33
2019-05-14T11:01:31.904Z,103305.67
2019-05-14T11:03:59.696Z,103314.67
2019-05-14T11:06:29.277Z,103314.50
2019-05-14T11:08:56.862Z,103307.82
2019-05-14T11:11:24.661Z,103305.13
2019-05-14T11:13:52.400Z,103297.31
2019-05-14T11:16:20.155Z,103326.92
2019-05-14T11:18:49.814Z,103308.80
2019-05-14T11:21:25.643Z,103307.38
2019-05-14T11:23:48.935Z,103318.61
2019-05-14T11:26:18.347Z,103304.63
2019-05-14T11:28:45.558Z,103304.83
2019-05-14T11:31:13.308Z,103306.99
2019-05-14T11:33:41.150Z,103299.03
2019-05-14T11:36:09.383Z,103293.01
2019-05-14T11:38:37.925Z,103294.44
2019-05-14T11:41:05.932Z,103286.67
2019-05-14T11:43:33.739Z,103278.15
2019-05-14T11:46:03.397Z,103291.20
2019-05-14T11:48:31.190Z,103275.42
2019-05-14T11:50:59.582Z,103278.38
2019-05-14T11:53:27.635Z,103279.99
2019-05-14T11:55:55.422Z,103276.23
2019-05-14T11:58:23.173Z,103269.23
2019-05-14T12:00:50.914Z,103275.23
2019-05-14T12:03:19.829Z,103270.70
2019-05-14T12:05:49.372Z,103271.44
2019-05-14T12:08:18.533Z,103270.28
2019-05-14T12:10:46.549Z,103269.02
2019-05-14T12:13:14.310Z,103271.73
2019-05-14T12:15:42.066Z,103270.53
2019-05-14T12:18:10.510Z,103259.12
2019-05-14T12:20:39.528Z,103276.13
2019-05-14T12:23:08.869Z,103259.89
2019-05-14T12:25:36.869Z,103254.13
2019-05-14T12:28:04.657Z,103257.63
2019-05-14T12:30:32.419Z,103257.20
2019-05-14T12:33:00.208Z,103255.63
2019-05-14T12:35:29.261Z,103258.93
2019-05-14T12:37:58.553Z,103254.28
2019-05-14T12:40:28.662Z,103258.75
2019-05-14T12:42:58.624Z,103248.00
2019-05-14T12:45:25.301Z,103241.03
2019-05-14T12:47:53.273Z,103239.30
2019-05-14T12:50:21.025Z,103238.33
2019-05-14T12:52:48.822Z,103221.47
2019-05-14T12:55:19.010Z,103222.21
2019-05-14T12:57:48.400Z,103226.63
2019-05-14T13:00:15.395Z,103227.55
2019-05-14T13:02:43.196Z,103226.97
2019-05-14T13:05:10.951Z,103220.95
2019-05-14T13:07:41.423Z,103213.16
2019-05-14T13:10:09.164Z,103217.65
2019-05-14T13:12:39.029Z,103211.20
2019-05-14T13:15:08.750Z,103219.19
2019-05-14T13:17:38.806Z,103229.32
2019-05-14T13:20:13.229Z,103218.92
2019-05-14T13:22:42.285Z,103210.73
2019-05-14T13:25:05.792Z,103205.33
2019-05-14T13:27:33.521Z,103200.80
2019-05-14T13:30:01.266Z,103206.13
2019-05-14T13:32:29.084Z,103193.05
2019-05-14T13:34:59.066Z,103192.97
2019-05-14T13:37:28.646Z,103198.14
2019-05-14T13:39:55.695Z,103196.77
2019-05-14T13:42:23.446Z,103186.67
2019-05-14T13:44:51.222Z,103183.11
2019-05-14T13:47:18.998Z,103182.00
2019-05-14T13:49:48.823Z,103177.09
2019-05-14T13:52:18.712Z,103183.69
2019-05-14T13:54:45.888Z,103176.59
2019-05-14T13:57:13.654Z,103168.22
2019-05-14T13:59:44.594Z,103169.77
2019-05-14T14:02:11.611Z,103171.72
2019-05-14T14:04:39.527Z,103171.95
2019-05-14T14:07:09.081Z,103162.63
2019-05-14T14:09:39.203Z,103162.47
2019-05-14T14:12:08.156Z,103148.81
2019-05-14T14:14:38.423Z,103144.27
2019-05-14T14:17:05.071Z,103141.19
2019-05-14T14:19:32.819Z,103131.16
2019-05-14T14:22:00.570Z,103134.02
2019-05-14T14:24:30.696Z,103134.83
2019-05-14T14:26:58.492Z,103138.37
2019-05-14T14:29:26.222Z,103141.36
2019-05-14T14:31:53.990Z,103142.55
2019-05-14T14:34:21.755Z,103131.50
2019-05-14T14:36:50.468Z,103132.77
2019-05-14T14:39:19.304Z,103123.44
2019-05-14T14:41:48.840Z,103116.10
2019-05-14T14:44:18.886Z,103130.16
2019-05-14T14:46:48.212Z,103123.91
2019-05-14T14:49:15.350Z,103131.44
2019-05-14T14:51:45.102Z,103128.98
2019-05-14T14:54:15.989Z,103062.67
2019-05-14T14:56:42.044Z,103126.95
2019-05-14T14:59:09.785Z,103126.53
2019-05-14T15:01:40.250Z,103132.01
2019-05-14T15:04:13.729Z,103125.30
2019-05-14T15:06:39.851Z,103132.36
2019-05-14T15:09:06.004Z,103123.19
2019-05-14T15:11:34.712Z,103118.24
2019-05-14T15:14:02.459Z,103121.16
2019-05-14T15:16:30.276Z,103116.25
2019-05-14T15:18:58.439Z,103106.62
2019-05-14T15:21:29.722Z,103110.19
2019-05-14T15:24:07.378Z,103098.14
2019-05-14T15:26:28.735Z,103101.25
2019-05-14T15:28:55.321Z,103100.41
2019-05-14T15:31:23.146Z,103093.00
2019-05-14T15:33:51.180Z,103098.64
2019-05-14T15:36:19.663Z,103099.45
2019-05-14T15:38:48.626Z,103061.02
2019-05-14T15:41:20.115Z,103097.03
2019-05-14T15:43:46.512Z,103108.30
2019-05-14T15:46:14.329Z,103103.20
2019-05-14T15:48:42.042Z,103087.25
2019-05-14T15:51:11.511Z,103089.78
2019-05-14T15:53:40.017Z,103084.56
2019-05-14T15:56:08.250Z,103082.23
2019-05-14T15:58:38.754Z,103082.19
2019-05-14T16:01:05.494Z,103080.89
2019-05-14T16:03:33.398Z,103078.89
2019-05-14T16:06:01.160Z,103084.11
2019-05-14T16:08:29.696Z,103067.97
2019-05-14T16:11:00.133Z,103079.23
2019-05-14T16:13:28.532Z,103070.03
2019-05-14T16:15:56.421Z,103068.12
2019-05-14T16:18:24.178Z,103081.80
2019-05-14T16:20:52.230Z,103073.25
2019-05-14T16:23:20.598Z,103070.25
2019-05-14T16:25:48.480Z,103068.34
2019-05-14T16:28:19.360Z,103078.84
2019-05-14T16:30:45.694Z,103080.95
2019-05-14T16:33:13.443Z,103072.36
2019-05-14T16:35:42.869Z,103058.22
2019-05-14T16:38:10.668Z,103064.74
2019-05-14T16:40:39.490Z,103067.20
2019-05-14T16:43:07.575Z,103060.82
2019-05-14T16:45:35.459Z,103058.70
2019-05-14T16:48:03.222Z,103061.81
2019-05-14T16:50:30.988Z,103060.10
2019-05-14T16:52:59.094Z,103060.03
2019-05-14T16:55:30.447Z,103065.58
2019-05-14T16:57:58.224Z,103060.25
2019-05-14T17:00:29.183Z,103053.74
2019-05-14T17:02:55.823Z,103058.29
2019-05-14T17:05:23.583Z,103066.92
2019-05-14T17:07:51.384Z,103061.13
2019-05-14T17:10:19.127Z,103070.53
2019-05-14T17:12:53.536Z,103062.59
2019-05-14T17:15:18.149Z,103062.86
2019-05-14T17:17:48.056Z,103059.98
2019-05-14T17:20:15.382Z,103063.64
2019-05-14T17:22:43.195Z,103060.30
2019-05-14T17:25:25.208Z,103056.38
2019-05-14T17:27:40.361Z,103058.48
2019-05-14T17:30:08.795Z,103048.77
2019-05-14T17:32:39.138Z,103052.52
2019-05-14T17:35:06.098Z,103053.47
2019-05-14T17:37:33.891Z,103050.84
2019-05-14T17:40:01.654Z,103059.06
2019-05-14T17:42:29.451Z,103063.33
2019-05-14T17:44:58.933Z,103058.20
2019-05-14T17:47:28.873Z,103067.91
2019-05-14T17:49:56.188Z,103057.70
2019-05-14T17:52:23.991Z,103052.83
2019-05-14T17:54:51.748Z,103058.42
2019-05-14T17:57:24.924Z,103059.41
2019-05-14T17:59:49.572Z,103060.95
2019-05-14T18:02:19.131Z,103057.76
2019-05-14T18:04:48.784Z,103059.25
2019-05-14T18:07:18.985Z,103055.66
2019-05-14T18:09:45.891Z,103054.31
2019-05-14T18:12:13.651Z,103054.58
2019-05-14T18:14:41.443Z,103055.39
2019-05-14T18:17:09.345Z,103057.03
2019-05-14T18:19:37.953Z,103061.78
2019-05-14T18:22:05.896Z,103059.52
2019-05-14T18:24:33.665Z,103059.91
2019-05-14T18:27:01.398Z,103052.93
2019-05-14T18:29:29.697Z,103058.63
2019-05-14T18:32:00.992Z,103052.40
2019-05-14T18:34:28.437Z,103057.69
2019-05-14T18:36:56.401Z,103054.36
2019-05-14T18:39:24.170Z,103054.42
2019-05-14T18:41:51.907Z,103054.08
2019-05-14T18:44:21.318Z,103046.80
2019-05-14T18:46:49.061Z,103046.85
2019-05-14T18:49:19.273Z,103052.59
2019-05-14T18:51:46.223Z,103046.64
2019-05-14T18:54:13.966Z,103042.27
2019-05-14T18:56:41.731Z,103040.55
2019-05-14T18:59:13.944Z,103043.08
2019-05-14T19:01:41.758Z,103040.98
2019-05-14T19:04:09.869Z,103039.25
2019-05-14T19:06:38.906Z,103042.09
2019-05-14T19:09:09.937Z,103040.45
2019-05-14T19:11:38.580Z,103036.61
2019-05-14T19:14:05.629Z,103038.04
2019-05-14T19:16:34.625Z,103043.28
2019-05-14T19:19:03.128Z,103034.66
2019-05-14T19:21:31.647Z,103032.61
2019-05-14T19:24:01.078Z,103034.69
2019-05-14T19:26:36.654Z,103035.00
2019-05-14T19:28:59.870Z,103028.53
2019-05-14T19:31:28.320Z,103033.39
2019-05-14T19:33:56.868Z,103028.16
2019-05-14T19:36:25.488Z,103026.34
2019-05-14T19:38:53.977Z,103028.05
2019-05-14T19:41:23.098Z,103027.16
2019-05-14T19:43:51.739Z,103023.48
2019-05-14T19:46:20.222Z,103020.31
2019-05-14T19:48:48.703Z,103019.15
2019-05-14T19:51:18.826Z,103029.43
2019-05-14T19:53:48.597Z,103034.02
2019-05-14T19:56:16.935Z,103027.34
2019-05-14T19:58:44.738Z,103024.88
2019-05-14T20:01:14.588Z,103028.99
2019-05-14T20:03:42.335Z,103029.53
2019-05-14T20:06:10.086Z,103032.39
2019-05-14T20:08:38.407Z,103029.65
2019-05-14T20:11:06.437Z,103029.59
2019-05-14T20:13:34.186Z,103027.23
2019-05-14T20:16:05.016Z,103025.66
2019-05-14T20:18:32.794Z,103021.64
2019-05-14T20:21:03.551Z,103019.76
2019-05-14T20:23:31.308Z,103014.11
2019-05-14T20:26:01.629Z,103013.22
2019-05-14T20:28:28.855Z,103012.84
2019-05-14T20:30:58.591Z,103015.91
2019-05-14T20:33:26.031Z,103017.59
2019-05-14T20:35:53.771Z,103020.61
2019-05-14T20:38:21.512Z,103015.84
2019-05-14T20:40:50.957Z,103017.00
2019-05-14T20:43:18.767Z,103020.89
2019-05-14T20:45:48.874Z,103026.55
2019-05-14T20:48:15.948Z,103030.41
2019-05-14T20:50:43.724Z,103028.20
2019-05-14T20:53:11.461Z,103026.00
2019-05-14T20:55:39.311Z,103026.20
2019-05-14T20:58:08.019Z,103028.77
2019-05-14T21:00:35.961Z,103025.86
2019-05-14T21:03:04.918Z,103025.47
2019-05-14T21:05:32.659Z,103027.25
2019-05-14T21:08:00.403Z,103029.80
2019-05-14T21:10:29.110Z,103023.83
2019-05-14T21:12:58.067Z,103022.63
2019-05-14T21:15:28.259Z,103024.36
2019-05-14T21:17:55.532Z,103022.18
2019-05-14T21:20:23.286Z,103022.14
2019-05-14T21:22:51.045Z,103027.66
2019-05-14T21:25:18.876Z,103022.09
2019-05-14T21:27:51.302Z,103014.80
2019-05-14T21:30:16.118Z,103013.50
2019-05-14T21:32:43.896Z,103013.81
2019-05-14T21:35:11.642Z,103018.15
2019-05-14T21:37:39.697Z,103020.80
2019-05-14T21:40:09.184Z,103008.35
2019-05-14T21:42:38.468Z,103014.98
2019-05-14T21:45:07.541Z,102944.47
2019-05-14T21:47:35.800Z,103012.13
2019-05-14T21:50:04.722Z,103015.27
2019-05-14T21:52:32.469Z,103013.67
2019-05-14T21:55:00.250Z,103007.39
2019-05-14T21:57:28.385Z,103009.63
2019-05-14T21:59:56.249Z,103002.86
2019-05-14T22:02:27.488Z,103006.29
2019-05-14T22:04:54.493Z,103007.63
2019-05-14T22:07:22.256Z,103003.83
2019-05-14T22:09:50.042Z,102992.71
2019-05-14T22:12:20.362Z,102991.36
2019-05-14T22:14:48.164Z,102991.63
2019-05-14T22:17:15.982Z,102985.25
2019-05-14T22:19:43.723Z,102987.61
2019-05-14T22:22:11.460Z,102986.86
2019-05-14T22:24:39.244Z,102983.19
2019-05-14T22:27:09.190Z,102986.30
2019-05-14T22:29:36.395Z,102981.73
2019-05-14T22:32:04.165Z,102976.73
2019-05-14T22:34:31.902Z,102978.29
2019-05-14T22:36:59.649Z,102969.47
2019-05-14T22:39:29.139Z,102974.88
2019-05-14T22:42:00.028Z,102964.87
2019-05-14T22:44:28.147Z,102968.11
2019-05-14T22:46:58.619Z,102964.92
2019-05-14T22:49:25.443Z,102961.33
2019-05-14T22:51:53.173Z,102962.52
2019-05-14T22:54:21.102Z,102962.66
2019-05-14T22:56:48.821Z,102955.52
2019-05-14T22:59:20.337Z,102958.77
2019-05-14T23:01:47.997Z,102955.58
2019-05-14T23:04:15.373Z,102961.74
2019-05-14T23:06:43.275Z,102956.28
2019-05-14T23:09:11.058Z,102949.91
2019-05-14T23:11:38.853Z,102950.83
2019-05-14T23:14:06.563Z,102944.33
2019-05-14T23:16:40.987Z,102944.86
2019-05-14T23:19:03.720Z,102946.58
2019-05-14T23:21:31.471Z,102941.75
2019-05-14T23:23:59.266Z,102937.05
2019-05-14T23:26:28.528Z,102932.34
2019-05-14T23:28:58.596Z,102929.81
2019-05-14T23:31:26.012Z,102936.27
2019-05-14T23:33:53.769Z,102932.67
2019-05-14T23:36:21.537Z,102929.48
2019-05-14T23:38:49.390Z,102926.16
2019-05-14T23:41:17.228Z,102935.05
2019-05-14T23:43:44.975Z,102928.76
2019-05-14T23:46:12.783Z,102927.25
2019-05-14T23:48:40.523Z,102923.66
2019-05-14T23:51:08.392Z,102923.03
2019-05-14T23:53:38.823Z,102914.61
2019-05-14T23:56:05.537Z,102918.72
2019-05-14T23:58:33.287Z,102909.11
